sensor_id;sensor_type;location;lat;lon;timestamp;P1;durP1;ratioP1;P2;durP2;ratioP2
9689;SDS011;4884;42.614;23.340;2023-12-22T00:01:17;16.27;;;9.07;;
9689;SDS011;4884;42.614;23.340;2023-12-22T00:03:42;15.23;;;9.50;;
9689;SDS011;4884;42.614;23.340;2023-12-22T00:06:08;13.80;;;8.50;;
9689;SDS011;4884;42.614;23.340;2023-12-22T00:08:33;15.50;;;9.27;;
9689;SDS011;4884;42.614;23.340;2023-12-22T00:10:58;12.07;;;8.20;;
9689;SDS011;4884;42.614;23.340;2023-12-22T00:13:24;15.63;;;8.63;;
9689;SDS011;4884;42.614;23.340;2023-12-22T00:15:49;13.00;;;8.30;;
9689;SDS011;4884;42.614;23.340;2023-12-22T00:18:14;11.80;;;7.57;;
9689;SDS011;4884;42.614;23.340;2023-12-22T00:20:40;13.47;;;8.23;;
9689;SDS011;4884;42.614;23.340;2023-12-22T00:23:05;15.87;;;10.07;;
9689;SDS011;4884;42.614;23.340;2023-12-22T00:25:30;14.67;;;8.90;;
9689;SDS011;4884;42.614;23.340;2023-12-22T00:27:56;14.93;;;9.70;;
9689;SDS011;4884;42.614;23.340;2023-12-22T00:30:21;13.83;;;8.10;;
9689;SDS011;4884;42.614;23.340;2023-12-22T00:32:46;14.60;;;8.27;;
9689;SDS011;4884;42.614;23.340;2023-12-22T00:35:11;15.33;;;8.27;;
9689;SDS011;4884;42.614;23.340;2023-12-22T00:37:36;10.70;;;7.63;;
9689;SDS011;4884;42.614;23.340;2023-12-22T00:40:02;14.50;;;8.00;;
9689;SDS011;4884;42.614;23.340;2023-12-22T00:42:32;12.73;;;9.07;;
9689;SDS011;4884;42.614;23.340;2023-12-22T00:44:57;13.80;;;9.00;;
9689;SDS011;4884;42.614;23.340;2023-12-22T00:47:22;10.73;;;8.73;;
9689;SDS011;4884;42.614;23.340;2023-12-22T00:49:47;13.60;;;9.40;;
9689;SDS011;4884;42.614;23.340;2023-12-22T00:52:13;12.47;;;9.40;;
9689;SDS011;4884;42.614;23.340;2023-12-22T00:54:38;17.20;;;8.80;;
9689;SDS011;4884;42.614;23.340;2023-12-22T00:57:03;18.80;;;11.50;;
9689;SDS011;4884;42.614;23.340;2023-12-22T00:59:29;16.43;;;9.77;;
9689;SDS011;4884;42.614;23.340;2023-12-22T01:01:54;20.10;;;11.00;;
9689;SDS011;4884;42.614;23.340;2023-12-22T01:04:19;15.23;;;11.03;;
9689;SDS011;4884;42.614;23.340;2023-12-22T01:06:44;19.30;;;11.43;;
9689;SDS011;4884;42.614;23.340;2023-12-22T01:09:10;19.60;;;10.67;;
9689;SDS011;4884;42.614;23.340;2023-12-22T01:11:35;13.83;;;9.87;;
9689;SDS011;4884;42.614;23.340;2023-12-22T01:14:00;20.83;;;11.70;;
9689;SDS011;4884;42.614;23.340;2023-12-22T01:16:26;19.97;;;11.20;;
9689;SDS011;4884;42.614;23.340;2023-12-22T01:18:51;19.37;;;10.50;;
9689;SDS011;4884;42.614;23.340;2023-12-22T01:21:16;19.83;;;12.50;;
9689;SDS011;4884;42.614;23.340;2023-12-22T01:23:42;16.63;;;11.73;;
9689;SDS011;4884;42.614;23.340;2023-12-22T01:26:07;16.00;;;12.33;;
9689;SDS011;4884;42.614;23.340;2023-12-22T01:28:33;17.90;;;12.03;;
9689;SDS011;4884;42.614;23.340;2023-12-22T01:30:58;19.13;;;12.33;;
9689;SDS011;4884;42.614;23.340;2023-12-22T01:33:23;17.43;;;12.87;;
9689;SDS011;4884;42.614;23.340;2023-12-22T01:35:49;18.90;;;13.17;;
9689;SDS011;4884;42.614;23.340;2023-12-22T01:38:15;18.73;;;12.73;;
9689;SDS011;4884;42.614;23.340;2023-12-22T01:40:40;19.30;;;14.17;;
9689;SDS011;4884;42.614;23.340;2023-12-22T01:43:05;18.73;;;12.93;;
9689;SDS011;4884;42.614;23.340;2023-12-22T01:45:31;21.93;;;13.40;;
9689;SDS011;4884;42.614;23.340;2023-12-22T01:47:56;17.80;;;12.50;;
9689;SDS011;4884;42.614;23.340;2023-12-22T01:50:22;18.10;;;13.10;;
9689;SDS011;4884;42.614;23.340;2023-12-22T01:52:47;22.80;;;12.43;;
9689;SDS011;4884;42.614;23.340;2023-12-22T01:55:12;19.03;;;13.53;;
9689;SDS011;4884;42.614;23.340;2023-12-22T01:57:38;20.60;;;11.53;;
9689;SDS011;4884;42.614;23.340;2023-12-22T02:00:05;24.67;;;12.83;;
9689;SDS011;4884;42.614;23.340;2023-12-22T02:02:31;18.57;;;12.77;;
9689;SDS011;4884;42.614;23.340;2023-12-22T02:04:57;17.33;;;10.87;;
9689;SDS011;4884;42.614;23.340;2023-12-22T02:07:22;17.40;;;9.97;;
9689;SDS011;4884;42.614;23.340;2023-12-22T02:09:47;21.53;;;10.80;;
9689;SDS011;4884;42.614;23.340;2023-12-22T02:12:13;15.23;;;10.17;;
9689;SDS011;4884;42.614;23.340;2023-12-22T02:14:38;14.87;;;10.57;;
9689;SDS011;4884;42.614;23.340;2023-12-22T02:19:38;14.33;;;9.33;;
9689;SDS011;4884;42.614;23.340;2023-12-22T02:22:08;14.60;;;11.07;;
9689;SDS011;4884;42.614;23.340;2023-12-22T02:24:34;15.67;;;9.60;;
9689;SDS011;4884;42.614;23.340;2023-12-22T02:29:37;15.57;;;9.93;;
9689;SDS011;4884;42.614;23.340;2023-12-22T02:32:07;13.10;;;9.33;;
9689;SDS011;4884;42.614;23.340;2023-12-22T02:34:33;13.90;;;10.33;;
9689;SDS011;4884;42.614;23.340;2023-12-22T02:37:00;14.73;;;9.97;;
9689;SDS011;4884;42.614;23.340;2023-12-22T02:39:26;14.13;;;9.80;;
9689;SDS011;4884;42.614;23.340;2023-12-22T02:41:51;16.67;;;10.07;;
9689;SDS011;4884;42.614;23.340;2023-12-22T02:44:16;19.23;;;11.23;;
9689;SDS011;4884;42.614;23.340;2023-12-22T02:46:41;13.67;;;10.10;;
9689;SDS011;4884;42.614;23.340;2023-12-22T02:49:08;18.17;;;11.17;;
9689;SDS011;4884;42.614;23.340;2023-12-22T02:51:33;15.40;;;11.47;;
9689;SDS011;4884;42.614;23.340;2023-12-22T02:53:59;16.40;;;11.40;;
9689;SDS011;4884;42.614;23.340;2023-12-22T02:56:24;17.37;;;11.63;;
9689;SDS011;4884;42.614;23.340;2023-12-22T02:58:49;19.70;;;12.83;;
9689;SDS011;4884;42.614;23.340;2023-12-22T03:01:14;18.97;;;12.00;;
9689;SDS011;4884;42.614;23.340;2023-12-22T03:03:40;16.50;;;11.23;;
9689;SDS011;4884;42.614;23.340;2023-12-22T03:06:05;17.33;;;10.83;;
9689;SDS011;4884;42.614;23.340;2023-12-22T03:08:30;16.07;;;10.47;;
9689;SDS011;4884;42.614;23.340;2023-12-22T03:10:55;14.10;;;9.03;;
9689;SDS011;4884;42.614;23.340;2023-12-22T03:13:21;14.27;;;9.20;;
9689;SDS011;4884;42.614;23.340;2023-12-22T03:15:46;15.40;;;10.00;;
9689;SDS011;4884;42.614;23.340;2023-12-22T03:18:12;15.77;;;11.73;;
9689;SDS011;4884;42.614;23.340;2023-12-22T03:20:37;18.97;;;12.10;;
9689;SDS011;4884;42.614;23.340;2023-12-22T03:23:03;19.37;;;11.80;;
9689;SDS011;4884;42.614;23.340;2023-12-22T03:25:28;18.20;;;12.67;;
9689;SDS011;4884;42.614;23.340;2023-12-22T03:27:54;19.13;;;12.67;;
9689;SDS011;4884;42.614;23.340;2023-12-22T03:30:19;17.77;;;12.83;;
9689;SDS011;4884;42.614;23.340;2023-12-22T03:32:44;17.37;;;12.20;;
9689;SDS011;4884;42.614;23.340;2023-12-22T03:35:09;18.17;;;12.60;;
9689;SDS011;4884;42.614;23.340;2023-12-22T03:37:34;22.23;;;13.13;;
9689;SDS011;4884;42.614;23.340;2023-12-22T03:40:00;20.73;;;12.93;;
9689;SDS011;4884;42.614;23.340;2023-12-22T03:42:25;21.90;;;13.27;;
9689;SDS011;4884;42.614;23.340;2023-12-22T03:44:50;19.30;;;12.63;;
9689;SDS011;4884;42.614;23.340;2023-12-22T03:47:16;17.27;;;12.23;;
9689;SDS011;4884;42.614;23.340;2023-12-22T03:49:41;20.77;;;13.87;;
9689;SDS011;4884;42.614;23.340;2023-12-22T03:52:06;21.87;;;13.73;;
9689;SDS011;4884;42.614;23.340;2023-12-22T03:54:31;21.57;;;14.43;;
9689;SDS011;4884;42.614;23.340;2023-12-22T03:56:56;23.03;;;14.20;;
9689;SDS011;4884;42.614;23.340;2023-12-22T03:59:22;20.77;;;13.73;;
9689;SDS011;4884;42.614;23.340;2023-12-22T04:01:51;22.20;;;13.33;;
9689;SDS011;4884;42.614;23.340;2023-12-22T04:04:17;21.97;;;14.27;;
9689;SDS011;4884;42.614;23.340;2023-12-22T04:06:42;17.20;;;13.33;;
9689;SDS011;4884;42.614;23.340;2023-12-22T04:09:07;19.20;;;14.17;;
9689;SDS011;4884;42.614;23.340;2023-12-22T04:11:32;20.13;;;14.23;;
9689;SDS011;4884;42.614;23.340;2023-12-22T04:13:59;19.40;;;13.40;;
9689;SDS011;4884;42.614;23.340;2023-12-22T04:16:25;16.63;;;13.60;;
9689;SDS011;4884;42.614;23.340;2023-12-22T04:18:50;17.67;;;12.57;;
9689;SDS011;4884;42.614;23.340;2023-12-22T04:21:15;17.77;;;12.40;;
9689;SDS011;4884;42.614;23.340;2023-12-22T04:23:41;22.43;;;13.63;;
9689;SDS011;4884;42.614;23.340;2023-12-22T04:26:06;18.10;;;14.00;;
9689;SDS011;4884;42.614;23.340;2023-12-22T04:28:31;19.47;;;13.10;;
9689;SDS011;4884;42.614;23.340;2023-12-22T04:30:56;16.07;;;11.90;;
9689;SDS011;4884;42.614;23.340;2023-12-22T04:33:22;18.63;;;12.40;;
9689;SDS011;4884;42.614;23.340;2023-12-22T04:35:47;19.20;;;13.30;;
9689;SDS011;4884;42.614;23.340;2023-12-22T04:38:12;18.27;;;11.73;;
9689;SDS011;4884;42.614;23.340;2023-12-22T04:40:37;17.83;;;12.40;;
9689;SDS011;4884;42.614;23.340;2023-12-22T04:43:03;17.60;;;12.20;;
9689;SDS011;4884;42.614;23.340;2023-12-22T04:45:28;16.23;;;12.73;;
9689;SDS011;4884;42.614;23.340;2023-12-22T04:47:53;17.30;;;12.27;;
9689;SDS011;4884;42.614;23.340;2023-12-22T04:50:18;18.20;;;12.70;;
9689;SDS011;4884;42.614;23.340;2023-12-22T04:52:44;22.07;;;13.03;;
9689;SDS011;4884;42.614;23.340;2023-12-22T04:55:09;21.20;;;12.70;;
9689;SDS011;4884;42.614;23.340;2023-12-22T04:57:34;19.53;;;12.93;;
9689;SDS011;4884;42.614;23.340;2023-12-22T04:59:59;21.13;;;12.67;;
9689;SDS011;4884;42.614;23.340;2023-12-22T05:02:25;23.07;;;12.73;;
9689;SDS011;4884;42.614;23.340;2023-12-22T05:04:50;19.37;;;13.00;;
9689;SDS011;4884;42.614;23.340;2023-12-22T05:07:15;21.60;;;13.63;;
9689;SDS011;4884;42.614;23.340;2023-12-22T05:09:41;20.87;;;15.30;;
9689;SDS011;4884;42.614;23.340;2023-12-22T05:12:06;17.87;;;13.70;;
9689;SDS011;4884;42.614;23.340;2023-12-22T05:14:32;22.33;;;15.97;;
9689;SDS011;4884;42.614;23.340;2023-12-22T05:16:57;27.33;;;16.80;;
9689;SDS011;4884;42.614;23.340;2023-12-22T05:19:22;23.53;;;15.57;;
9689;SDS011;4884;42.614;23.340;2023-12-22T05:21:47;20.63;;;14.30;;
9689;SDS011;4884;42.614;23.340;2023-12-22T05:24:14;22.47;;;14.30;;
9689;SDS011;4884;42.614;23.340;2023-12-22T05:26:39;23.33;;;14.07;;
9689;SDS011;4884;42.614;23.340;2023-12-22T05:29:05;17.83;;;12.30;;
9689;SDS011;4884;42.614;23.340;2023-12-22T05:31:30;19.40;;;14.60;;
9689;SDS011;4884;42.614;23.340;2023-12-22T05:33:57;19.60;;;14.10;;
9689;SDS011;4884;42.614;23.340;2023-12-22T05:36:23;20.17;;;13.80;;
9689;SDS011;4884;42.614;23.340;2023-12-22T05:38:50;23.50;;;15.27;;
9689;SDS011;4884;42.614;23.340;2023-12-22T05:41:15;20.77;;;13.83;;
9689;SDS011;4884;42.614;23.340;2023-12-22T05:43:40;22.00;;;13.57;;
9689;SDS011;4884;42.614;23.340;2023-12-22T05:46:05;21.03;;;14.10;;
9689;SDS011;4884;42.614;23.340;2023-12-22T05:48:31;24.20;;;16.03;;
9689;SDS011;4884;42.614;23.340;2023-12-22T05:50:56;26.13;;;16.07;;
9689;SDS011;4884;42.614;23.340;2023-12-22T05:53:22;24.27;;;15.23;;
9689;SDS011;4884;42.614;23.340;2023-12-22T05:55:47;20.97;;;14.60;;
9689;SDS011;4884;42.614;23.340;2023-12-22T05:58:12;20.23;;;14.93;;
9689;SDS011;4884;42.614;23.340;2023-12-22T06:00:37;19.07;;;14.97;;
9689;SDS011;4884;42.614;23.340;2023-12-22T06:03:03;29.63;;;14.97;;
9689;SDS011;4884;42.614;23.340;2023-12-22T06:05:28;21.03;;;16.07;;
9689;SDS011;4884;42.614;23.340;2023-12-22T06:07:54;23.50;;;14.27;;
9689;SDS011;4884;42.614;23.340;2023-12-22T06:10:19;15.30;;;11.40;;
9689;SDS011;4884;42.614;23.340;2023-12-22T06:12:44;16.43;;;11.73;;
9689;SDS011;4884;42.614;23.340;2023-12-22T06:15:09;14.37;;;11.53;;
9689;SDS011;4884;42.614;23.340;2023-12-22T06:17:35;17.87;;;11.30;;
9689;SDS011;4884;42.614;23.340;2023-12-22T06:20:00;15.30;;;10.60;;
9689;SDS011;4884;42.614;23.340;2023-12-22T06:22:25;18.27;;;10.97;;
9689;SDS011;4884;42.614;23.340;2023-12-22T06:24:51;16.93;;;11.13;;
9689;SDS011;4884;42.614;23.340;2023-12-22T06:27:16;17.17;;;11.57;;
9689;SDS011;4884;42.614;23.340;2023-12-22T06:29:41;17.13;;;10.60;;
9689;SDS011;4884;42.614;23.340;2023-12-22T06:32:07;15.37;;;10.90;;
9689;SDS011;4884;42.614;23.340;2023-12-22T06:34:32;17.20;;;12.37;;
9689;SDS011;4884;42.614;23.340;2023-12-22T06:36:57;19.27;;;12.90;;
9689;SDS011;4884;42.614;23.340;2023-12-22T06:39:23;20.03;;;11.97;;
9689;SDS011;4884;42.614;23.340;2023-12-22T06:41:48;21.47;;;13.30;;
9689;SDS011;4884;42.614;23.340;2023-12-22T06:44:14;19.50;;;12.40;;
9689;SDS011;4884;42.614;23.340;2023-12-22T06:46:39;23.77;;;15.17;;
9689;SDS011;4884;42.614;23.340;2023-12-22T06:49:05;18.00;;;12.57;;
9689;SDS011;4884;42.614;23.340;2023-12-22T06:51:30;20.20;;;13.17;;
9689;SDS011;4884;42.614;23.340;2023-12-22T06:53:56;19.20;;;13.03;;
9689;SDS011;4884;42.614;23.340;2023-12-22T06:56:22;49.77;;;26.33;;
9689;SDS011;4884;42.614;23.340;2023-12-22T06:58:49;21.50;;;13.30;;
9689;SDS011;4884;42.614;23.340;2023-12-22T07:01:20;16.60;;;12.20;;
9689;SDS011;4884;42.614;23.340;2023-12-22T07:03:46;12.67;;;10.40;;
9689;SDS011;4884;42.614;23.340;2023-12-22T07:06:13;21.50;;;12.20;;
9689;SDS011;4884;42.614;23.340;2023-12-22T07:08:38;18.40;;;12.97;;
9689;SDS011;4884;42.614;23.340;2023-12-22T07:11:04;19.33;;;12.20;;
9689;SDS011;4884;42.614;23.340;2023-12-22T07:13:29;13.90;;;10.80;;
9689;SDS011;4884;42.614;23.340;2023-12-22T07:15:54;17.93;;;11.83;;
9689;SDS011;4884;42.614;23.340;2023-12-22T07:18:19;16.57;;;10.97;;
9689;SDS011;4884;42.614;23.340;2023-12-22T07:20:45;15.43;;;10.90;;
9689;SDS011;4884;42.614;23.340;2023-12-22T07:23:10;16.20;;;11.63;;
9689;SDS011;4884;42.614;23.340;2023-12-22T07:25:36;20.37;;;12.93;;
9689;SDS011;4884;42.614;23.340;2023-12-22T07:28:03;16.77;;;12.17;;
9689;SDS011;4884;42.614;23.340;2023-12-22T07:30:29;20.00;;;14.77;;
9689;SDS011;4884;42.614;23.340;2023-12-22T07:32:54;19.87;;;15.40;;
9689;SDS011;4884;42.614;23.340;2023-12-22T07:35:19;22.07;;;14.80;;
9689;SDS011;4884;42.614;23.340;2023-12-22T07:37:45;20.23;;;14.10;;
9689;SDS011;4884;42.614;23.340;2023-12-22T07:40:10;18.00;;;14.30;;
9689;SDS011;4884;42.614;23.340;2023-12-22T07:42:35;18.70;;;13.20;;
9689;SDS011;4884;42.614;23.340;2023-12-22T07:45:01;22.63;;;14.30;;
9689;SDS011;4884;42.614;23.340;2023-12-22T07:47:28;22.13;;;14.13;;
9689;SDS011;4884;42.614;23.340;2023-12-22T07:49:53;20.23;;;15.07;;
9689;SDS011;4884;42.614;23.340;2023-12-22T07:52:18;20.30;;;14.30;;
9689;SDS011;4884;42.614;23.340;2023-12-22T07:54:44;16.90;;;12.47;;
9689;SDS011;4884;42.614;23.340;2023-12-22T07:57:09;24.37;;;15.80;;
9689;SDS011;4884;42.614;23.340;2023-12-22T07:59:35;16.23;;;13.17;;
9689;SDS011;4884;42.614;23.340;2023-12-22T08:02:00;21.07;;;13.60;;
9689;SDS011;4884;42.614;23.340;2023-12-22T08:04:25;21.47;;;13.67;;
9689;SDS011;4884;42.614;23.340;2023-12-22T08:06:51;19.53;;;13.37;;
9689;SDS011;4884;42.614;23.340;2023-12-22T08:09:17;22.27;;;13.57;;
9689;SDS011;4884;42.614;23.340;2023-12-22T08:11:42;19.03;;;13.03;;
9689;SDS011;4884;42.614;23.340;2023-12-22T08:14:07;17.90;;;13.33;;
9689;SDS011;4884;42.614;23.340;2023-12-22T08:16:33;20.30;;;14.27;;
9689;SDS011;4884;42.614;23.340;2023-12-22T08:18:58;19.43;;;13.57;;
9689;SDS011;4884;42.614;23.340;2023-12-22T08:21:23;22.10;;;13.27;;
9689;SDS011;4884;42.614;23.340;2023-12-22T08:23:49;20.03;;;15.07;;
9689;SDS011;4884;42.614;23.340;2023-12-22T08:26:14;18.23;;;12.33;;
9689;SDS011;4884;42.614;23.340;2023-12-22T08:28:42;22.70;;;16.10;;
9689;SDS011;4884;42.614;23.340;2023-12-22T08:31:07;26.17;;;18.43;;
9689;SDS011;4884;42.614;23.340;2023-12-22T08:33:32;21.33;;;15.83;;
9689;SDS011;4884;42.614;23.340;2023-12-22T08:35:57;25.00;;;16.33;;
9689;SDS011;4884;42.614;23.340;2023-12-22T08:38:23;20.87;;;15.53;;
9689;SDS011;4884;42.614;23.340;2023-12-22T08:40:48;27.27;;;16.87;;
9689;SDS011;4884;42.614;23.340;2023-12-22T08:43:14;29.17;;;20.03;;
9689;SDS011;4884;42.614;23.340;2023-12-22T08:45:39;27.67;;;19.93;;
9689;SDS011;4884;42.614;23.340;2023-12-22T08:48:04;23.20;;;16.30;;
9689;SDS011;4884;42.614;23.340;2023-12-22T08:50:32;28.13;;;18.77;;
9689;SDS011;4884;42.614;23.340;2023-12-22T08:52:58;27.17;;;19.67;;
9689;SDS011;4884;42.614;23.340;2023-12-22T08:55:23;30.80;;;21.03;;
9689;SDS011;4884;42.614;23.340;2023-12-22T08:57:48;28.07;;;18.83;;
9689;SDS011;4884;42.614;23.340;2023-12-22T09:00:13;34.00;;;22.07;;
9689;SDS011;4884;42.614;23.340;2023-12-22T09:02:39;24.77;;;15.97;;
9689;SDS011;4884;42.614;23.340;2023-12-22T09:05:04;23.70;;;16.03;;
9689;SDS011;4884;42.614;23.340;2023-12-22T09:07:32;19.27;;;13.67;;
9689;SDS011;4884;42.614;23.340;2023-12-22T09:09:57;20.87;;;14.33;;
9689;SDS011;4884;42.614;23.340;2023-12-22T09:12:22;16.53;;;13.17;;
9689;SDS011;4884;42.614;23.340;2023-12-22T09:14:48;20.60;;;14.47;;
9689;SDS011;4884;42.614;23.340;2023-12-22T09:17:14;20.43;;;15.90;;
9689;SDS011;4884;42.614;23.340;2023-12-22T09:19:40;19.43;;;14.57;;
9689;SDS011;4884;42.614;23.340;2023-12-22T09:22:07;19.37;;;13.57;;
9689;SDS011;4884;42.614;23.340;2023-12-22T09:24:33;21.00;;;13.87;;
9689;SDS011;4884;42.614;23.340;2023-12-22T09:26:58;21.43;;;14.30;;
9689;SDS011;4884;42.614;23.340;2023-12-22T09:29:30;21.43;;;14.00;;
9689;SDS011;4884;42.614;23.340;2023-12-22T09:31:58;19.40;;;14.70;;
9689;SDS011;4884;42.614;23.340;2023-12-22T09:34:25;19.70;;;14.30;;
9689;SDS011;4884;42.614;23.340;2023-12-22T09:36:50;21.67;;;15.93;;
9689;SDS011;4884;42.614;23.340;2023-12-22T09:39:16;27.97;;;20.30;;
9689;SDS011;4884;42.614;23.340;2023-12-22T09:41:43;23.97;;;18.33;;
9689;SDS011;4884;42.614;23.340;2023-12-22T09:44:11;26.33;;;19.23;;
9689;SDS011;4884;42.614;23.340;2023-12-22T09:46:37;30.07;;;19.97;;
9689;SDS011;4884;42.614;23.340;2023-12-22T09:49:02;25.47;;;19.20;;
9689;SDS011;4884;42.614;23.340;2023-12-22T09:51:28;28.13;;;20.87;;
9689;SDS011;4884;42.614;23.340;2023-12-22T09:53:54;28.10;;;19.70;;
9689;SDS011;4884;42.614;23.340;2023-12-22T09:56:21;38.53;;;25.13;;
9689;SDS011;4884;42.614;23.340;2023-12-22T09:58:47;43.53;;;27.63;;
9689;SDS011;4884;42.614;23.340;2023-12-22T10:01:14;50.00;;;31.27;;
9689;SDS011;4884;42.614;23.340;2023-12-22T10:03:40;49.93;;;35.40;;
9689;SDS011;4884;42.614;23.340;2023-12-22T10:06:08;44.70;;;33.13;;
9689;SDS011;4884;42.614;23.340;2023-12-22T10:08:33;33.97;;;24.33;;
9689;SDS011;4884;42.614;23.340;2023-12-22T10:10:59;29.40;;;22.03;;
9689;SDS011;4884;42.614;23.340;2023-12-22T10:13:24;29.60;;;21.67;;
9689;SDS011;4884;42.614;23.340;2023-12-22T10:15:53;28.80;;;20.70;;
9689;SDS011;4884;42.614;23.340;2023-12-22T10:18:19;33.70;;;27.80;;
9689;SDS011;4884;42.614;23.340;2023-12-22T10:20:45;24.87;;;18.70;;
9689;SDS011;4884;42.614;23.340;2023-12-22T10:23:10;18.87;;;14.30;;
9689;SDS011;4884;42.614;23.340;2023-12-22T10:25:36;19.13;;;15.90;;
9689;SDS011;4884;42.614;23.340;2023-12-22T10:28:01;40.33;;;36.13;;
9689;SDS011;4884;42.614;23.340;2023-12-22T10:30:27;19.57;;;17.47;;
9689;SDS011;4884;42.614;23.340;2023-12-22T10:32:53;31.37;;;19.37;;
9689;SDS011;4884;42.614;23.340;2023-12-22T10:35:19;41.50;;;29.10;;
9689;SDS011;4884;42.614;23.340;2023-12-22T10:37:47;36.47;;;26.60;;
9689;SDS011;4884;42.614;23.340;2023-12-22T10:40:13;28.20;;;22.93;;
9689;SDS011;4884;42.614;23.340;2023-12-22T10:42:39;25.17;;;18.33;;
9689;SDS011;4884;42.614;23.340;2023-12-22T10:45:05;24.70;;;18.07;;
9689;SDS011;4884;42.614;23.340;2023-12-22T10:47:31;25.00;;;16.97;;
9689;SDS011;4884;42.614;23.340;2023-12-22T10:49:56;23.57;;;18.27;;
9689;SDS011;4884;42.614;23.340;2023-12-22T10:52:22;25.77;;;18.47;;
9689;SDS011;4884;42.614;23.340;2023-12-22T10:54:48;27.37;;;19.03;;
9689;SDS011;4884;42.614;23.340;2023-12-22T10:57:16;24.63;;;18.80;;
9689;SDS011;4884;42.614;23.340;2023-12-22T10:59:45;23.47;;;18.13;;
9689;SDS011;4884;42.614;23.340;2023-12-22T11:02:17;22.80;;;17.37;;
9689;SDS011;4884;42.614;23.340;2023-12-22T11:04:47;17.60;;;14.80;;
9689;SDS011;4884;42.614;23.340;2023-12-22T11:07:12;19.30;;;15.10;;
9689;SDS011;4884;42.614;23.340;2023-12-22T11:09:39;20.27;;;14.43;;
9689;SDS011;4884;42.614;23.340;2023-12-22T11:12:05;20.50;;;14.00;;
9689;SDS011;4884;42.614;23.340;2023-12-22T11:14:31;24.23;;;19.53;;
9689;SDS011;4884;42.614;23.340;2023-12-22T11:16:57;21.67;;;16.50;;
9689;SDS011;4884;42.614;23.340;2023-12-22T11:19:24;24.73;;;20.40;;
9689;SDS011;4884;42.614;23.340;2023-12-22T11:21:51;23.50;;;17.07;;
9689;SDS011;4884;42.614;23.340;2023-12-22T11:24:16;16.40;;;14.70;;
9689;SDS011;4884;42.614;23.340;2023-12-22T11:26:42;24.87;;;22.33;;
9689;SDS011;4884;42.614;23.340;2023-12-22T11:29:08;15.87;;;14.23;;
9689;SDS011;4884;42.614;23.340;2023-12-22T11:31:34;14.10;;;12.07;;
9689;SDS011;4884;42.614;23.340;2023-12-22T11:34:01;15.87;;;13.00;;
9689;SDS011;4884;42.614;23.340;2023-12-22T11:36:26;4.20;;;3.80;;
9689;SDS011;4884;42.614;23.340;2023-12-22T11:38:51;1.63;;;1.53;;
9689;SDS011;4884;42.614;23.340;2023-12-22T11:41:18;2.20;;;2.00;;
9689;SDS011;4884;42.614;23.340;2023-12-22T11:43:44;1.63;;;1.53;;
9689;SDS011;4884;42.614;23.340;2023-12-22T11:46:10;1.17;;;1.17;;
9689;SDS011;4884;42.614;23.340;2023-12-22T11:48:35;3.27;;;1.87;;
9689;SDS011;4884;42.614;23.340;2023-12-22T11:51:02;2.30;;;2.03;;
9689;SDS011;4884;42.614;23.340;2023-12-22T11:53:36;2.57;;;2.17;;
9689;SDS011;4884;42.614;23.340;2023-12-22T11:56:03;2.10;;;1.90;;
9689;SDS011;4884;42.614;23.340;2023-12-22T12:01:11;1.90;;;1.70;;
9689;SDS011;4884;42.614;23.340;2023-12-22T12:03:37;1.80;;;1.23;;
9689;SDS011;4884;42.614;23.340;2023-12-22T12:06:15;1.67;;;1.43;;
9689;SDS011;4884;42.614;23.340;2023-12-22T12:08:43;1.10;;;1.00;;
9689;SDS011;4884;42.614;23.340;2023-12-22T12:11:09;1.80;;;1.70;;
9689;SDS011;4884;42.614;23.340;2023-12-22T12:13:34;1.63;;;1.53;;
9689;SDS011;4884;42.614;23.340;2023-12-22T12:16:01;1.60;;;1.00;;
9689;SDS011;4884;42.614;23.340;2023-12-22T12:18:28;1.90;;;1.80;;
9689;SDS011;4884;42.614;23.340;2023-12-22T12:20:54;2.73;;;1.50;;
9689;SDS011;4884;42.614;23.340;2023-12-22T12:23:19;1.63;;;1.13;;
9689;SDS011;4884;42.614;23.340;2023-12-22T12:25:44;1.40;;;1.13;;
9689;SDS011;4884;42.614;23.340;2023-12-22T12:28:09;2.03;;;0.87;;
9689;SDS011;4884;42.614;23.340;2023-12-22T12:30:36;1.70;;;1.60;;
9689;SDS011;4884;42.614;23.340;2023-12-22T12:33:11;1.40;;;1.30;;
9689;SDS011;4884;42.614;23.340;2023-12-22T12:35:37;0.90;;;0.80;;
9689;SDS011;4884;42.614;23.340;2023-12-22T12:38:03;1.27;;;1.00;;
9689;SDS011;4884;42.614;23.340;2023-12-22T12:40:28;1.27;;;1.17;;
9689;SDS011;4884;42.614;23.340;2023-12-22T12:42:55;2.27;;;1.13;;
9689;SDS011;4884;42.614;23.340;2023-12-22T12:45:23;2.20;;;1.50;;
9689;SDS011;4884;42.614;23.340;2023-12-22T12:48:02;2.53;;;1.30;;
9689;SDS011;4884;42.614;23.340;2023-12-22T12:50:28;1.23;;;0.73;;
9689;SDS011;4884;42.614;23.340;2023-12-22T12:52:53;5.97;;;2.97;;
9689;SDS011;4884;42.614;23.340;2023-12-22T12:55:23;3.87;;;2.20;;
9689;SDS011;4884;42.614;23.340;2023-12-22T12:57:49;0.93;;;0.80;;
9689;SDS011;4884;42.614;23.340;2023-12-22T13:00:15;0.60;;;0.60;;
9689;SDS011;4884;42.614;23.340;2023-12-22T13:02:41;2.03;;;0.90;;
9689;SDS011;4884;42.614;23.340;2023-12-22T13:05:07;1.47;;;0.90;;
9689;SDS011;4884;42.614;23.340;2023-12-22T13:07:34;2.00;;;0.90;;
9689;SDS011;4884;42.614;23.340;2023-12-22T13:10:00;0.70;;;0.70;;
9689;SDS011;4884;42.614;23.340;2023-12-22T13:12:25;1.43;;;0.90;;
9689;SDS011;4884;42.614;23.340;2023-12-22T13:14:51;0.70;;;0.70;;
9689;SDS011;4884;42.614;23.340;2023-12-22T13:17:16;1.20;;;1.10;;
9689;SDS011;4884;42.614;23.340;2023-12-22T13:19:42;1.70;;;1.30;;
9689;SDS011;4884;42.614;23.340;2023-12-22T13:22:07;1.87;;;1.20;;
9689;SDS011;4884;42.614;23.340;2023-12-22T13:24:32;4.03;;;1.90;;
9689;SDS011;4884;42.614;23.340;2023-12-22T13:26:58;1.60;;;1.00;;
9689;SDS011;4884;42.614;23.340;2023-12-22T13:29:25;1.97;;;1.03;;
9689;SDS011;4884;42.614;23.340;2023-12-22T13:31:50;1.63;;;1.20;;
9689;SDS011;4884;42.614;23.340;2023-12-22T13:34:15;1.57;;;1.33;;
9689;SDS011;4884;42.614;23.340;2023-12-22T13:36:40;3.93;;;2.00;;
9689;SDS011;4884;42.614;23.340;2023-12-22T13:39:07;1.47;;;1.20;;
9689;SDS011;4884;42.614;23.340;2023-12-22T13:41:33;3.97;;;2.20;;
9689;SDS011;4884;42.614;23.340;2023-12-22T13:44:02;6.03;;;3.70;;
9689;SDS011;4884;42.614;23.340;2023-12-22T13:46:27;5.97;;;2.53;;
9689;SDS011;4884;42.614;23.340;2023-12-22T13:48:53;2.33;;;1.53;;
9689;SDS011;4884;42.614;23.340;2023-12-22T13:51:19;3.17;;;1.90;;
9689;SDS011;4884;42.614;23.340;2023-12-22T13:53:47;1.40;;;1.30;;
9689;SDS011;4884;42.614;23.340;2023-12-22T13:56:13;1.90;;;1.70;;
9689;SDS011;4884;42.614;23.340;2023-12-22T13:58:45;2.97;;;1.13;;
9689;SDS011;4884;42.614;23.340;2023-12-22T14:01:14;1.40;;;1.27;;
9689;SDS011;4884;42.614;23.340;2023-12-22T14:03:43;1.47;;;1.30;;
9689;SDS011;4884;42.614;23.340;2023-12-22T14:06:09;1.67;;;1.57;;
9689;SDS011;4884;42.614;23.340;2023-12-22T14:08:35;2.83;;;1.83;;
9689;SDS011;4884;42.614;23.340;2023-12-22T14:11:00;7.90;;;3.57;;
9689;SDS011;4884;42.614;23.340;2023-12-22T14:13:26;2.57;;;1.97;;
9689;SDS011;4884;42.614;23.340;2023-12-22T14:15:52;4.93;;;2.33;;
9689;SDS011;4884;42.614;23.340;2023-12-22T14:18:17;4.07;;;2.63;;
9689;SDS011;4884;42.614;23.340;2023-12-22T14:20:42;4.13;;;2.30;;
9689;SDS011;4884;42.614;23.340;2023-12-22T14:23:08;1.80;;;1.60;;
9689;SDS011;4884;42.614;23.340;2023-12-22T14:25:36;4.83;;;2.90;;
9689;SDS011;4884;42.614;23.340;2023-12-22T14:28:02;3.13;;;2.07;;
9689;SDS011;4884;42.614;23.340;2023-12-22T14:30:27;1.37;;;1.27;;
9689;SDS011;4884;42.614;23.340;2023-12-22T14:32:52;2.70;;;1.77;;
9689;SDS011;4884;42.614;23.340;2023-12-22T14:35:19;2.90;;;2.30;;
9689;SDS011;4884;42.614;23.340;2023-12-22T14:37:44;5.37;;;3.03;;
9689;SDS011;4884;42.614;23.340;2023-12-22T14:40:11;2.57;;;1.50;;